Time;durP1;ratioP1;P1;durP2;ratioP2;P2;SDS_P1;SDS_P2;PMS_P1;PMS_P2;Temp;Humidity;BMP_temperature;BMP_pressure;BME280_temperature;BME280_humidity;BME280_pressure;Samples;Min_cycle;Max_cycle;Signal;HPM_P1;HPM_P2
2023/09/02 00:02:02;;;;;;;3.90;2.40;;;24.10;62.00;;;;;;5014258;28;20277;-46
2023/09/02 00:04:29;;;;;;;2.37;2.17;;;24.10;61.80;;;;;;5013129;28;20204;-50
2023/09/02 00:06:54;;;;;;;3.07;2.40;;;24.00;61.80;;;;;;5008470;28;20220;-47
2023/09/02 00:09:20;;;;;;;6.80;2.10;;;23.80;62.00;;;;;;5013623;28;20948;-49
2023/09/02 00:11:46;;;;;;;3.17;2.20;;;23.60;63.40;;;;;;5011947;28;20202;-46
2023/09/02 00:14:12;;;;;;;2.90;2.10;;;23.60;63.70;;;;;;5012335;28;20782;-49
2023/09/02 00:16:37;;;;;;;2.50;2.30;;;23.70;63.50;;;;;;5010023;28;20834;-49
2023/09/02 00:19:04;;;;;;;7.60;3.10;;;23.80;63.30;;;;;;5009353;28;20440;-50
2023/09/02 00:21:31;;;;;;;3.93;2.60;;;23.80;62.80;;;;;;5011029;28;20587;-45
2023/09/02 00:24:05;;;;;;;3.13;2.43;;;23.80;62.70;;;;;;5011773;28;20452;-49
2023/09/02 00:26:31;;;;;;;2.33;2.10;;;23.90;62.60;;;;;;5008012;28;20803;-45
2023/09/02 00:28:57;;;;;;;4.00;2.47;;;23.90;62.40;;;;;;5006291;28;20439;-46
2023/09/02 00:31:23;;;;;;;2.13;1.93;;;23.90;62.20;;;;;;5004357;28;21010;-49
2023/09/02 00:33:48;;;;;;;2.60;2.37;;;23.60;62.20;;;;;;5012714;28;20436;-49
2023/09/02 00:36:14;;;;;;;2.27;2.07;;;23.00;64.60;;;;;;5012534;28;20249;-45
2023/09/02 00:38:40;;;;;;;3.90;2.23;;;22.80;65.20;;;;;;5006533;28;20203;-45
2023/09/02 00:41:12;;;;;;;2.20;2.00;;;23.00;65.90;;;;;;5008454;28;20310;-50
2023/09/02 00:43:39;;;;;;;2.90;2.03;;;23.20;65.60;;;;;;5010852;28;20516;-45
2023/09/02 00:46:06;;;;;;;2.17;1.97;;;23.30;64.90;;;;;;5009270;28;20951;-46
2023/09/02 00:48:32;;;;;;;4.73;2.00;;;23.40;64.10;;;;;;5006876;28;20627;-45
2023/09/02 00:50:58;;;;;;;2.37;2.10;;;23.60;63.80;;;;;;5011260;28;20484;-47
2023/09/02 00:53:24;;;;;;;2.00;1.90;;;23.50;63.50;;;;;;5010710;28;20208;-45
2023/09/02 00:55:51;;;;;;;5.80;2.60;;;23.50;63.50;;;;;;5011832;28;20804;-45
2023/09/02 00:58:17;;;;;;;3.20;2.40;;;23.60;63.20;;;;;;5011907;28;20201;-49
2023/09/02 01:00:43;;;;;;;2.70;2.50;;;23.40;63.00;;;;;;5009927;28;20484;-45
2023/09/02 01:03:10;;;;;;;4.40;1.97;;;23.40;63.50;;;;;;5010515;28;20638;-45
2023/09/02 01:05:36;;;;;;;4.20;1.93;;;23.40;63.40;;;;;;5011753;28;20456;-49
2023/09/02 01:08:04;;;;;;;3.80;2.40;;;23.40;63.20;;;;;;5008664;28;20440;-49
2023/09/02 01:10:32;;;;;;;5.33;2.10;;;23.30;63.40;;;;;;5012307;28;20448;-49
2023/09/02 01:12:58;;;;;;;6.63;2.30;;;23.30;63.60;;;;;;5011565;28;20484;-48
2023/09/02 01:15:24;;;;;;;1.80;1.70;;;23.20;63.80;;;;;;5009971;28;20877;-46
2023/09/02 01:17:49;;;;;;;2.40;2.20;;;23.30;64.10;;;;;;5008000;28;20201;-46
2023/09/02 01:20:17;;;;;;;3.90;2.07;;;23.30;62.90;;;;;;5007524;28;20260;-47
2023/09/02 01:23:09;;;;;;;2.63;2.43;;;23.30;63.70;;;;;;5010414;28;20217;-45
2023/09/02 01:26:06;;;;;;;2.67;2.07;;;23.30;63.40;;;;;;5009910;28;20453;-45
2023/09/02 01:28:35;;;;;;;2.93;2.40;;;23.40;62.80;;;;;;5009961;28;20477;-48
2023/09/02 01:31:05;;;;;;;2.93;2.20;;;23.20;63.90;;;;;;5013767;28;20830;-49
2023/09/02 01:33:31;;;;;;;2.43;1.70;;;23.00;64.00;;;;;;5008991;28;20536;-45
2023/09/02 01:35:58;;;;;;;2.10;1.50;;;23.00;65.30;;;;;;5005545;28;20453;-46
2023/09/02 01:38:27;;;;;;;4.53;2.10;;;23.10;65.10;;;;;;5010615;28;20441;-45
2023/09/02 01:40:54;;;;;;;4.47;2.10;;;23.10;64.00;;;;;;5012253;28;20520;-48
2023/09/02 01:43:21;;;;;;;2.87;2.00;;;23.20;64.70;;;;;;5009648;28;20539;-46
2023/09/02 01:45:47;;;;;;;8.73;2.30;;;23.40;64.50;;;;;;5004244;28;20446;-47
2023/09/02 01:48:14;;;;;;;3.17;2.03;;;23.60;64.10;;;;;;5007570;28;20515;-47
2023/09/02 01:50:41;;;;;;;3.00;1.80;;;23.70;63.30;;;;;;5012358;28;20472;-46
2023/09/02 01:53:08;;;;;;;3.57;2.23;;;23.70;62.30;;;;;;5011200;28;20536;-45
2023/09/02 01:55:35;;;;;;;2.60;2.10;;;23.60;62.30;;;;;;5008194;28;20445;-45
2023/09/02 01:58:00;;;;;;;2.80;2.10;;;23.60;62.40;;;;;;5009439;28;20460;-47
2023/09/02 02:00:29;;;;;;;1.70;1.60;;;23.70;62.40;;;;;;5010734;28;20480;-46
2023/09/02 02:02:54;;;;;;;6.17;2.30;;;23.80;62.10;;;;;;5004853;28;20557;-47
2023/09/02 02:05:28;;;;;;;2.33;1.80;;;23.70;62.00;;;;;;5006286;28;20451;-47
2023/09/02 02:08:01;;;;;;;2.30;2.00;;;23.50;61.60;;;;;;5008676;28;20202;-47
2023/09/02 02:10:29;;;;;;;2.03;1.87;;;23.30;62.40;;;;;;5012045;28;20527;-46
2023/09/02 02:12:55;;;;;;;2.63;2.27;;;23.30;62.50;;;;;;5005816;28;20487;-46
2023/09/02 02:15:20;;;;;;;2.57;1.90;;;23.30;62.90;;;;;;5008210;28;20932;-45
2023/09/02 02:17:46;;;;;;;2.43;1.70;;;23.30;63.10;;;;;;5004541;28;20312;-46
2023/09/02 02:20:12;;;;;;;2.20;2.00;;;23.50;62.70;;;;;;5012294;28;20701;-46
2023/09/02 02:22:37;;;;;;;2.07;1.80;;;23.60;62.20;;;;;;5009051;28;20201;-45
2023/09/02 02:25:04;;;;;;;2.13;1.90;;;23.60;61.90;;;;;;5005916;28;20932;-46
2023/09/02 02:27:30;;;;;;;5.93;2.47;;;23.60;61.80;;;;;;5010243;28;20224;-48
2023/09/02 02:29:57;;;;;;;3.80;1.97;;;23.70;61.90;;;;;;5007096;28;20441;-46
2023/09/02 02:32:23;;;;;;;3.27;2.17;;;23.80;61.80;;;;;;5009030;28;20198;-49
2023/09/02 02:34:49;;;;;;;2.30;2.10;;;23.80;59.90;;;;;;4997611;28;20444;-45
2023/09/02 02:37:14;;;;;;;4.67;2.20;;;23.80;59.40;;;;;;5007644;28;20237;-46
2023/09/02 02:39:40;;;;;;;5.87;2.40;;;23.70;60.30;;;;;;5010164;28;20319;-47
2023/09/02 02:42:07;;;;;;;2.33;2.13;;;23.70;60.80;;;;;;5007123;28;20204;-46
2023/09/02 02:44:34;;;;;;;3.00;2.30;;;23.70;61.60;;;;;;4999724;28;20193;-46
2023/09/02 02:46:59;;;;;;;4.83;2.03;;;23.70;60.60;;;;;;5007049;28;20524;-45
2023/09/02 02:49:25;;;;;;;2.20;2.00;;;23.70;60.10;;;;;;5011020;28;20991;-45
2023/09/02 02:51:50;;;;;;;2.60;1.80;;;23.60;59.80;;;;;;5007776;28;20229;-47
2023/09/02 02:54:16;;;;;;;2.23;2.00;;;23.60;59.90;;;;;;5010651;28;20190;-48
2023/09/02 02:56:42;;;;;;;2.20;1.60;;;23.50;60.10;;;;;;5005018;28;20264;-45
2023/09/02 02:59:07;;;;;;;2.10;1.90;;;23.50;60.30;;;;;;5001507;28;20744;-46
2023/09/02 03:01:33;;;;;;;6.23;2.10;;;23.40;60.00;;;;;;5004520;28;20233;-48
2023/09/02 03:03:58;;;;;;;2.83;2.10;;;23.40;60.30;;;;;;4979570;28;20186;-49
2023/09/02 03:06:24;;;;;;;2.03;1.87;;;23.30;60.40;;;;;;5007220;28;20260;-46
2023/09/02 03:08:49;;;;;;;2.30;2.10;;;23.30;60.40;;;;;;5005774;28;20193;-46
2023/09/02 03:11:15;;;;;;;7.80;2.03;;;23.10;61.50;;;;;;4998188;28;20622;-45
2023/09/02 03:13:40;;;;;;;6.47;2.37;;;23.00;61.50;;;;;;5004595;28;20252;-46
2023/09/02 03:16:06;;;;;;;2.27;2.00;;;23.10;61.70;;;;;;5007243;28;20196;-46
2023/09/02 03:18:32;;;;;;;3.20;2.00;;;23.10;61.40;;;;;;5008969;28;20213;-45
2023/09/02 03:21:06;;;;;;;2.03;1.90;;;23.10;61.40;;;;;;5008445;28;20279;-45
2023/09/02 03:23:34;;;;;;;2.53;2.33;;;23.10;61.50;;;;;;5007796;28;20445;-45
2023/09/02 03:26:15;;;;;;;20.70;3.07;;;23.10;61.30;;;;;;5010981;28;20539;-49
2023/09/02 03:28:40;;;;;;;3.83;3.00;;;23.00;60.60;;;;;;5011082;28;20459;-46
2023/09/02 03:31:10;;;;;;;3.00;2.67;;;22.70;62.00;;;;;;5008449;28;20436;-48
2023/09/02 03:33:36;;;;;;;3.00;2.37;;;22.60;62.70;;;;;;5007393;28;20226;-45
2023/09/02 03:36:03;;;;;;;2.50;2.30;;;22.60;62.50;;;;;;5009929;28;20445;-45
2023/09/02 03:38:29;;;;;;;7.50;2.80;;;22.40;63.10;;;;;;5006585;28;20550;-48
2023/09/02 03:40:54;;;;;;;2.70;2.43;;;22.40;63.60;;;;;;5010136;28;20520;-46
2023/09/02 03:43:20;;;;;;;2.80;2.50;;;22.40;63.60;;;;;;5006930;28;20212;-47
2023/09/02 03:45:49;;;;;;;2.90;1.97;;;22.40;63.90;;;;;;5009001;28;20202;-46
2023/09/02 03:48:19;;;;;;;2.60;2.03;;;22.50;63.50;;;;;;5013353;28;20205;-47
2023/09/02 03:51:05;;;;;;;4.97;2.47;;;22.70;63.40;;;;;;5010922;28;21297;-46
2023/09/02 03:53:34;;;;;;;2.83;2.03;;;22.80;62.80;;;;;;5009687;28;20484;-46
2023/09/02 03:55:59;;;;;;;2.00;1.90;;;22.80;61.60;;;;;;5010249;28;20451;-45
2023/09/02 03:58:28;;;;;;;3.03;1.93;;;22.80;61.80;;;;;;5009116;28;20440;-46
2023/09/02 04:00:53;;;;;;;2.27;2.10;;;22.80;61.50;;;;;;5012738;28;20708;-45
2023/09/02 04:03:21;;;;;;;4.77;2.10;;;22.80;61.90;;;;;;5014196;28;20429;-46
2023/09/02 04:05:47;;;;;;;3.07;2.03;;;22.80;61.90;;;;;;5012613;28;20255;-48
2023/09/02 04:08:17;;;;;;;2.40;1.83;;;22.80;61.80;;;;;;5012866;28;20523;-47
2023/09/02 04:10:43;;;;;;;2.37;1.80;;;22.80;61.30;;;;;;5010419;28;20494;-49
2023/09/02 04:13:08;;;;;;;1.63;1.53;;;22.90;61.50;;;;;;5009141;28;20437;-50
2023/09/02 04:15:34;;;;;;;2.27;1.87;;;22.90;61.60;;;;;;5010035;28;20289;-47
2023/09/02 04:18:00;;;;;;;3.13;2.13;;;22.80;61.10;;;;;;5011918;28;20229;-47
2023/09/02 04:20:26;;;;;;;2.90;1.90;;;22.90;61.40;;;;;;5008741;28;20583;-49
2023/09/02 04:22:52;;;;;;;2.60;1.97;;;22.90;61.20;;;;;;5011319;28;20202;-49
2023/09/02 04:25:19;;;;;;;2.33;1.93;;;22.90;61.00;;;;;;5009821;28;20514;-49
2023/09/02 04:27:45;;;;;;;1.70;1.60;;;23.00;61.00;;;;;;5013475;28;20201;-48
2023/09/02 04:30:12;;;;;;;1.60;1.50;;;23.00;61.10;;;;;;5007213;28;20476;-50
2023/09/02 04:32:37;;;;;;;1.67;1.57;;;23.10;60.50;;;;;;5005753;28;20841;-48
2023/09/02 04:35:03;;;;;;;1.90;1.57;;;23.10;60.20;;;;;;5008887;28;20447;-49
2023/09/02 04:37:29;;;;;;;2.17;1.97;;;23.10;60.10;;;;;;5011985;28;20198;-49
2023/09/02 04:39:54;;;;;;;2.00;1.57;;;23.10;60.20;;;;;;5008673;28;20828;-49
2023/09/02 04:42:20;;;;;;;2.17;1.97;;;23.10;60.20;;;;;;5012326;28;20194;-46
2023/09/02 04:44:46;;;;;;;2.93;2.10;;;23.10;60.00;;;;;;5009970;28;22101;-45
2023/09/02 04:47:12;;;;;;;1.80;1.70;;;23.10;59.90;;;;;;5009955;28;20194;-48
2023/09/02 04:49:38;;;;;;;2.17;2.07;;;23.10;59.80;;;;;;5009645;28;20456;-48
2023/09/02 04:52:03;;;;;;;2.00;1.90;;;23.10;60.00;;;;;;5004767;28;20895;-47
2023/09/02 04:54:30;;;;;;;2.73;1.70;;;23.10;59.60;;;;;;5013032;28;20239;-49
2023/09/02 04:56:55;;;;;;;2.03;1.90;;;23.10;59.80;;;;;;5008880;28;20472;-49
2023/09/02 04:59:21;;;;;;;4.50;1.50;;;22.90;59.90;;;;;;5008904;28;20540;-49
2023/09/02 05:01:46;;;;;;;2.00;1.57;;;22.80;60.10;;;;;;5008116;28;20239;-46
2023/09/02 05:04:12;;;;;;;5.47;3.10;;;22.80;60.80;;;;;;5006488;28;20197;-49
2023/09/02 05:06:38;;;;;;;3.43;1.70;;;22.80;60.30;;;;;;5011718;28;20574;-49
2023/09/02 05:09:04;;;;;;;12.60;2.47;;;22.80;60.60;;;;;;5007090;28;20654;-49
2023/09/02 05:11:30;;;;;;;4.60;2.17;;;22.50;60.00;;;;;;5002062;28;20271;-48
2023/09/02 05:13:56;;;;;;;3.57;2.57;;;22.20;62.00;;;;;;5010447;28;20586;-49
2023/09/02 05:16:21;;;;;;;3.90;2.83;;;22.20;62.50;;;;;;5011793;28;20688;-49
2023/09/02 05:18:47;;;;;;;10.30;2.93;;;22.30;62.50;;;;;;5009802;28;20288;-48
2023/09/02 05:21:12;;;;;;;3.70;2.40;;;22.30;62.10;;;;;;5011840;28;20573;-46
2023/09/02 05:23:38;;;;;;;4.07;2.50;;;22.40;61.90;;;;;;5010469;28;20204;-46
2023/09/02 05:26:03;;;;;;;6.80;2.13;;;22.40;61.80;;;;;;5011188;28;20196;-47
2023/09/02 05:28:29;;;;;;;2.83;2.20;;;22.40;61.70;;;;;;5011004;28;20284;-49
2023/09/02 05:30:55;;;;;;;3.20;2.30;;;22.30;61.90;;;;;;5004435;28;20209;-46
2023/09/02 05:33:20;;;;;;;4.00;2.33;;;22.40;62.10;;;;;;5007578;28;20201;-44
2023/09/02 05:35:46;;;;;;;2.30;2.10;;;22.40;62.10;;;;;;5007918;28;20281;-45
2023/09/02 05:38:12;;;;;;;3.13;1.93;;;22.30;62.20;;;;;;5007297;28;20205;-45
2023/09/02 05:40:44;;;;;;;1.90;1.80;;;22.30;62.00;;;;;;5000303;28;20315;-49
2023/09/02 05:43:10;;;;;;;2.97;1.83;;;22.20;62.40;;;;;;5000570;28;20204;-47
2023/09/02 05:45:35;;;;;;;23.47;3.30;;;22.00;62.70;;;;;;5012445;28;20488;-44
2023/09/02 05:48:01;;;;;;;3.10;2.20;;;21.80;63.50;;;;;;5007701;28;20260;-49
2023/09/02 05:50:27;;;;;;;10.50;2.80;;;21.60;65.40;;;;;;5005565;28;20583;-47
2023/09/02 05:52:52;;;;;;;2.37;2.00;;;21.60;65.30;;;;;;5009829;28;20186;-47
2023/09/02 05:55:18;;;;;;;9.00;3.20;;;21.60;65.70;;;;;;5011008;28;20638;-48
2023/09/02 05:57:43;;;;;;;5.83;3.00;;;21.30;66.50;;;;;;5010096;28;20290;-50
2023/09/02 06:00:09;;;;;;;3.30;2.50;;;21.10;67.90;;;;;;5006234;28;20225;-49
2023/09/02 06:02:35;;;;;;;2.90;2.60;;;21.40;67.80;;;;;;5008789;28;20538;-48
2023/09/02 06:05:02;;;;;;;2.30;2.10;;;21.40;67.40;;;;;;5004610;28;20532;-50
2023/09/02 06:07:27;;;;;;;2.63;2.40;;;21.40;67.80;;;;;;5006485;28;20190;-50
2023/09/02 06:09:53;;;;;;;2.90;2.70;;;21.30;69.10;;;;;;5007192;28;20851;-47
2023/09/02 06:12:18;;;;;;;6.87;2.47;;;21.40;69.60;;;;;;5004784;28;20201;-45
2023/09/02 06:14:44;;;;;;;2.50;2.30;;;21.50;69.60;;;;;;5004026;28;20273;-50
2023/09/02 06:17:09;;;;;;;2.40;2.23;;;21.30;69.70;;;;;;5008323;28;20209;-49
2023/09/02 06:19:35;;;;;;;2.47;2.27;;;21.30;70.40;;;;;;5009852;28;20265;-49
2023/09/02 06:22:01;;;;;;;2.53;2.30;;;21.10;71.50;;;;;;5012449;28;20272;-50
2023/09/02 06:24:27;;;;;;;2.70;2.50;;;21.10;71.70;;;;;;5008916;28;20237;-46
2023/09/02 06:26:53;;;;;;;2.30;2.20;;;21.10;72.60;;;;;;5011434;28;20198;-50
2023/09/02 06:29:18;;;;;;;3.20;2.63;;;21.10;72.80;;;;;;5011368;28;20916;-49
2023/09/02 06:31:45;;;;;;;2.80;2.60;;;21.10;73.20;;;;;;5012364;28;20194;-49
2023/09/02 06:34:11;;;;;;;3.63;2.40;;;21.40;73.50;;;;;;5011013;28;20661;-48
2023/09/02 06:36:37;;;;;;;2.63;2.40;;;21.60;71.40;;;;;;5003229;28;20477;-50
2023/09/02 06:39:04;;;;;;;2.73;2.53;;;21.60;71.60;;;;;;5009586;28;20483;-48
2023/09/02 06:41:30;;;;;;;2.00;1.90;;;21.60;71.70;;;;;;5012015;28;20264;-49
2023/09/02 06:43:55;;;;;;;4.40;2.77;;;21.40;72.90;;;;;;5011944;28;20480;-48
2023/09/02 06:46:22;;;;;;;2.30;2.10;;;21.70;73.30;;;;;;5009300;28;20198;-46
2023/09/02 06:48:48;;;;;;;8.23;2.40;;;22.10;71.60;;;;;;5012088;28;20831;-47
2023/09/02 06:51:15;;;;;;;2.40;2.20;;;22.50;70.20;;;;;;5011643;28;20976;-49
2023/09/02 06:53:41;;;;;;;2.70;2.50;;;22.60;68.80;;;;;;5012205;28;20417;-49
2023/09/02 06:56:08;;;;;;;2.57;2.37;;;22.70;68.50;;;;;;5011772;28;20535;-50
2023/09/02 06:58:39;;;;;;;3.47;2.50;;;22.40;68.40;;;;;;5011574;28;21095;-46
2023/09/02 07:01:05;;;;;;;2.50;2.30;;;22.00;70.70;;;;;;5005700;28;20481;-50
2023/09/02 07:03:31;;;;;;;3.13;2.23;;;22.10;70.80;;;;;;5005744;28;20982;-45
2023/09/02 07:06:06;;;;;;;2.33;2.23;;;22.70;70.80;;;;;;4991370;28;20252;-48
2023/09/02 07:08:32;;;;;;;5.20;2.70;;;22.90;68.40;;;;;;5012051;28;20197;-50
2023/09/02 07:10:58;;;;;;;2.50;2.07;;;23.30;67.60;;;;;;5006552;28;20453;-47
2023/09/02 07:13:24;;;;;;;2.63;2.43;;;23.60;66.30;;;;;;5006980;28;20264;-50
2023/09/02 07:16:06;;;;;;;2.30;2.10;;;24.00;65.20;;;;;;5009212;28;20467;-46
2023/09/02 07:18:33;;;;;;;2.87;2.67;;;24.30;64.00;;;;;;4997928;28;20224;-48
2023/09/02 07:21:00;;;;;;;2.77;2.13;;;24.50;62.90;;;;;;5005700;28;20547;-52
2023/09/02 07:23:27;;;;;;;2.77;2.00;;;24.70;62.00;;;;;;5007949;28;20437;-45
2023/09/02 07:25:52;;;;;;;2.50;1.93;;;25.00;62.20;;;;;;5012615;28;20515;-49
2023/09/02 07:28:18;;;;;;;3.80;2.80;;;25.10;61.00;;;;;;5008471;28;20544;-46
2023/09/02 07:30:44;;;;;;;2.30;2.10;;;25.20;60.20;;;;;;5011923;28;20198;-45
2023/09/02 07:33:09;;;;;;;2.60;2.40;;;25.20;60.20;;;;;;5009282;28;20568;-45
2023/09/02 07:35:37;;;;;;;4.40;2.37;;;25.20;60.70;;;;;;5012534;28;20194;-47
2023/09/02 07:38:06;;;;;;;2.47;2.27;;;25.30;60.80;;;;;;5008349;28;20217;-45
2023/09/02 07:40:32;;;;;;;2.30;1.90;;;25.60;59.70;;;;;;5007759;28;20499;-46
2023/09/02 07:43:00;;;;;;;2.57;1.97;;;25.90;59.00;;;;;;5005047;28;20441;-45
2023/09/02 07:45:26;;;;;;;5.23;2.30;;;26.20;58.90;;;;;;5010356;28;20693;-47
2023/09/02 07:47:53;;;;;;;2.00;1.90;;;26.40;58.00;;;;;;5008459;28;20433;-47
2023/09/02 07:50:18;;;;;;;1.73;1.60;;;26.50;57.10;;;;;;5005059;28;20272;-48
2023/09/02 07:52:44;;;;;;;2.30;2.10;;;26.70;57.20;;;;;;5011445;28;20563;-48
2023/09/02 07:55:09;;;;;;;3.67;2.10;;;26.80;56.10;;;;;;5011173;28;20230;-46
2023/09/02 07:57:35;;;;;;;2.53;2.03;;;26.90;56.30;;;;;;5010335;28;20205;-48
2023/09/02 08:00:00;;;;;;;2.97;2.30;;;27.10;55.60;;;;;;5008521;28;20575;-49
2023/09/02 08:02:26;;;;;;;3.17;2.17;;;27.10;55.30;;;;;;5004482;28;20231;-50
2023/09/02 08:04:52;;;;;;;3.70;2.00;;;27.00;55.30;;;;;;5000363;28;20229;-47
2023/09/02 08:07:17;;;;;;;2.80;2.27;;;27.00;55.60;;;;;;5004022;28;20328;-47
2023/09/02 08:09:43;;;;;;;2.40;2.20;;;27.10;55.00;;;;;;5003902;28;20194;-47
2023/09/02 08:12:09;;;;;;;2.27;2.00;;;27.20;54.90;;;;;;5007194;28;20194;-49
2023/09/02 08:14:34;;;;;;;3.00;2.70;;;27.30;54.80;;;;;;5003643;28;20855;-46
2023/09/02 08:17:00;;;;;;;3.10;2.20;;;27.40;54.70;;;;;;5000642;28;20449;-45
2023/09/02 08:19:25;;;;;;;2.37;1.90;;;27.40;55.00;;;;;;5008178;28;20585;-45
2023/09/02 08:21:51;;;;;;;3.60;2.17;;;27.40;55.00;;;;;;5004990;28;20283;-46
2023/09/02 08:24:16;;;;;;;2.00;1.70;;;27.40;55.20;;;;;;5013507;28;20193;-45
2023/09/02 08:26:42;;;;;;;3.47;2.20;;;27.50;55.10;;;;;;5010123;28;20198;-46
2023/09/02 08:29:08;;;;;;;5.63;2.23;;;27.60;55.00;;;;;;5013312;28;20229;-46
2023/09/02 08:31:34;;;;;;;5.70;2.70;;;27.80;55.00;;;;;;5010583;28;20563;-45
2023/09/02 08:33:59;;;;;;;3.03;2.17;;;27.90;55.20;;;;;;5012920;28;20441;-45
2023/09/02 08:36:25;;;;;;;5.27;2.60;;;28.00;54.90;;;;;;5013557;28;20198;-45
2023/09/02 08:38:53;;;;;;;2.83;2.40;;;28.20;54.50;;;;;;5012185;28;20214;-47
2023/09/02 08:41:26;;;;;;;2.30;2.10;;;28.20;54.90;;;;;;5006048;28;20234;-49
2023/09/02 08:44:00;;;;;;;5.30;2.60;;;28.40;54.70;;;;;;5005671;28;20452;-49
2023/09/02 08:46:29;;;;;;;2.47;2.27;;;28.40;53.80;;;;;;5012581;28;20445;-45
2023/09/02 08:48:59;;;;;;;2.70;2.00;;;28.40;53.20;;;;;;5008452;28;20542;-45
2023/09/02 08:51:26;;;;;;;4.83;2.50;;;28.40;53.20;;;;;;5011281;28;20472;-45
2023/09/02 08:53:54;;;;;;;3.30;2.10;;;28.40;53.90;;;;;;5007925;28;20456;-45
2023/09/02 08:56:21;;;;;;;2.60;2.40;;;28.40;54.60;;;;;;5000614;28;20436;-46
2023/09/02 08:58:48;;;;;;;3.13;1.83;;;28.30;53.90;;;;;;5009286;28;20467;-46
2023/09/02 09:01:18;;;;;;;2.17;1.97;;;28.40;54.10;;;;;;5012302;28;20491;-45
2023/09/02 09:03:48;;;;;;;2.03;1.83;;;28.50;53.30;;;;;;5006751;28;20445;-46
2023/09/02 09:06:15;;;;;;;2.07;1.87;;;28.50;53.10;;;;;;5012880;28;20841;-46
2023/09/02 09:08:41;;;;;;;2.10;2.00;;;28.60;53.70;;;;;;5003858;28;20507;-45
2023/09/02 09:11:08;;;;;;;4.10;2.70;;;28.80;52.70;;;;;;5009550;28;20838;-45
2023/09/02 09:13:43;;;;;;;2.07;1.87;;;28.80;52.20;;;;;;5006335;28;20247;-48
2023/09/02 09:16:13;;;;;;;6.10;2.13;;;29.00;51.40;;;;;;5010941;28;20863;-47
2023/09/02 09:18:39;;;;;;;2.83;2.60;;;29.20;51.10;;;;;;5007114;28;20448;-45
2023/09/02 09:21:05;;;;;;;2.60;2.20;;;29.40;51.00;;;;;;5005244;28;20965;-47
2023/09/02 09:23:30;;;;;;;3.27;2.70;;;29.50;51.10;;;;;;5008427;28;20202;-46
2023/09/02 09:25:56;;;;;;;2.20;2.10;;;29.60;50.70;;;;;;5008466;28;20256;-47
2023/09/02 09:28:23;;;;;;;3.43;1.90;;;29.80;49.40;;;;;;5002591;28;20205;-47
2023/09/02 09:30:49;;;;;;;2.27;2.10;;;29.40;50.90;;;;;;5010158;28;20536;-49
2023/09/02 09:33:18;;;;;;;4.30;2.47;;;29.50;50.40;;;;;;5008249;28;20451;-47
2023/09/02 09:35:43;;;;;;;2.40;2.20;;;29.80;50.60;;;;;;5008682;28;20983;-46
2023/09/02 09:38:09;;;;;;;2.30;2.10;;;30.20;51.10;;;;;;5003368;28;20453;-48
2023/09/02 09:40:38;;;;;;;1.77;1.67;;;30.50;48.80;;;;;;5003275;28;20240;-46
2023/09/02 09:43:16;;;;;;;2.20;1.90;;;30.30;48.80;;;;;;5002696;28;20259;-46
2023/09/02 09:45:51;;;;;;;2.70;2.10;;;30.50;48.70;;;;;;5008044;28;20453;-46
2023/09/02 09:48:18;;;;;;;2.37;2.17;;;30.70;48.20;;;;;;5011943;28;20441;-46
2023/09/02 09:50:43;;;;;;;2.60;2.40;;;30.60;46.80;;;;;;5011615;28;20468;-46
2023/09/02 09:53:09;;;;;;;2.13;2.03;;;30.60;47.10;;;;;;5007402;28;20446;-47
2023/09/02 09:55:36;;;;;;;2.70;2.10;;;30.70;47.90;;;;;;5004466;28;20275;-48
2023/09/02 09:58:02;;;;;;;2.50;1.97;;;31.00;47.50;;;;;;5010467;28;20582;-49
2023/09/02 10:00:28;;;;;;;2.30;1.70;;;31.20;45.80;;;;;;5004046;28;20495;-47
2023/09/02 10:02:56;;;;;;;2.50;2.30;;;31.20;45.30;;;;;;5006119;28;20446;-48
2023/09/02 10:05:33;;;;;;;3.00;2.00;;;31.20;45.30;;;;;;5007258;28;20496;-48
2023/09/02 10:08:02;;;;;;;2.47;2.00;;;31.30;46.70;;;;;;5003132;28;20480;-48
2023/09/02 10:10:36;;;;;;;2.13;1.90;;;31.40;45.80;;;;;;5006342;28;21029;-47
2023/09/02 10:13:03;;;;;;;2.77;1.77;;;31.70;45.60;;;;;;5007644;28;20449;-46
2023/09/02 10:15:30;;;;;;;2.50;1.77;;;31.80;45.10;;;;;;5007907;28;20445;-47
2023/09/02 10:18:00;;;;;;;1.63;1.53;;;31.80;44.60;;;;;;5011050;28;20439;-47
2023/09/02 10:20:28;;;;;;;2.73;2.40;;;32.00;44.20;;;;;;5010551;28;20498;-47
2023/09/02 10:22:57;;;;;;;4.50;1.80;;;32.20;43.80;;;;;;5008344;28;21015;-48
2023/09/02 10:25:29;;;;;;;2.10;1.90;;;32.40;42.70;;;;;;5010056;28;20445;-48
2023/09/02 10:28:05;;;;;;;1.77;1.67;;;32.50;41.20;;;;;;4999455;28;20452;-48
2023/09/02 10:30:46;;;;;;;4.10;1.80;;;32.70;41.80;;;;;;5011308;28;20441;-49
2023/09/02 10:33:20;;;;;;;1.70;1.60;;;32.90;41.90;;;;;;5002294;28;20449;-49
2023/09/02 10:35:57;;;;;;;2.43;2.00;;;33.00;42.10;;;;;;4998912;28;20440;-48
2023/09/02 10:38:24;;;;;;;2.10;1.90;;;33.10;42.20;;;;;;5007812;28;20444;-46
2023/09/02 10:40:57;;;;;;;2.37;1.77;;;33.30;41.20;;;;;;5005011;28;21789;-48
2023/09/02 10:43:24;;;;;;;1.67;1.57;;;33.50;42.10;;;;;;5001195;28;20445;-49
2023/09/02 10:45:50;;;;;;;2.47;2.00;;;33.70;41.10;;;;;;5006319;28;20495;-46
2023/09/02 10:48:17;;;;;;;1.97;1.73;;;33.70;40.30;;;;;;5008566;28;20508;-45
2023/09/02 10:50:43;;;;;;;1.67;1.53;;;33.70;40.90;;;;;;5006699;28;20805;-48
2023/09/02 10:53:09;;;;;;;1.80;1.63;;;33.70;39.70;;;;;;5010896;28;20491;-46
2023/09/02 10:56:02;;;;;;;2.03;1.93;;;33.90;40.80;;;;;;5010904;28;20425;-49
2023/09/02 10:58:46;;;;;;;2.13;1.50;;;33.70;39.30;;;;;;5009316;28;20205;-49
2023/09/02 11:01:12;;;;;;;2.03;1.60;;;33.90;39.20;;;;;;5003087;28;20487;-50
2023/09/02 11:03:49;;;;;;;2.00;1.80;;;34.00;39.70;;;;;;5004552;28;20440;-51
2023/09/02 11:06:16;;;;;;;1.77;1.67;;;34.00;35.70;;;;;;5008203;28;20209;-51
2023/09/02 11:08:45;;;;;;;2.37;1.80;;;34.20;36.10;;;;;;5010303;28;20507;-49
2023/09/02 11:11:12;;;;;;;1.97;1.63;;;34.40;36.10;;;;;;5011246;28;20451;-51
2023/09/02 11:14:06;;;;;;;2.97;1.80;;;34.50;35.90;;;;;;5008475;28;20441;-50
2023/09/02 11:16:32;;;;;;;2.30;2.10;;;34.50;36.00;;;;;;5010124;28;20453;-51
2023/09/02 11:19:00;;;;;;;1.70;1.60;;;34.70;37.30;;;;;;5011464;28;20447;-52
2023/09/02 11:21:43;;;;;;;2.30;1.87;;;34.90;36.40;;;;;;5011383;28;20530;-51
2023/09/02 11:24:19;;;;;;;1.57;1.47;;;35.00;33.90;;;;;;5008227;28;20456;-46
2023/09/02 11:26:58;;;;;;;2.07;1.80;;;35.10;33.60;;;;;;5005163;28;20510;-47
2023/09/02 11:29:26;;;;;;;1.43;1.33;;;35.20;34.20;;;;;;4997938;28;20440;-46
2023/09/02 11:32:02;;;;;;;1.90;1.77;;;35.00;33.40;;;;;;5003758;28;20841;-49
2023/09/02 11:34:29;;;;;;;1.80;1.70;;;35.00;35.10;;;;;;5005357;28;20940;-46
2023/09/02 11:36:56;;;;;;;1.50;1.40;;;34.50;34.60;;;;;;5005981;28;20455;-46
2023/09/02 11:39:29;;;;;;;1.97;1.57;;;34.60;34.70;;;;;;5008447;28;20603;-46
2023/09/02 11:42:10;;;;;;;2.10;1.90;;;34.80;33.80;;;;;;5002045;28;20488;-46
2023/09/02 11:44:37;;;;;;;2.37;1.60;;;35.00;32.40;;;;;;5008461;28;20956;-46
2023/09/02 11:47:03;;;;;;;1.97;1.40;;;35.10;33.90;;;;;;5009068;28;20497;-47
2023/09/02 11:49:29;;;;;;;1.73;1.63;;;35.20;32.80;;;;;;5016213;28;20421;-46
2023/09/02 11:51:55;;;;;;;4.90;1.50;;;35.40;34.70;;;;;;5013324;28;20476;-48
2023/09/02 11:54:21;;;;;;;3.73;2.13;;;35.60;35.00;;;;;;5011014;28;20245;-47
2023/09/02 11:57:00;;;;;;;3.20;1.90;;;35.70;35.30;;;;;;5004353;28;20455;-46
2023/09/02 11:59:26;;;;;;;2.03;1.83;;;35.90;33.90;;;;;;5012464;28;20245;-46
2023/09/02 12:02:12;;;;;;;3.30;2.40;;;36.00;35.00;;;;;;5002333;28;20578;-46
2023/09/02 12:04:44;;;;;;;2.53;1.83;;;35.90;33.50;;;;;;4995357;28;20567;-46
2023/09/02 12:07:10;;;;;;;2.20;1.40;;;36.00;33.60;;;;;;5009665;28;20552;-49
2023/09/02 12:09:37;;;;;;;1.93;1.70;;;36.00;34.30;;;;;;5012494;28;20944;-47
2023/09/02 12:12:03;;;;;;;1.53;1.43;;;36.20;34.70;;;;;;5009008;28;20445;-50
2023/09/02 12:14:29;;;;;;;1.60;1.50;;;36.30;33.00;;;;;;5009174;28;20448;-45
2023/09/02 12:16:56;;;;;;;2.20;1.93;;;36.20;33.90;;;;;;5002941;28;20578;-45
2023/09/02 12:19:22;;;;;;;1.60;1.50;;;36.40;33.30;;;;;;5013000;28;20198;-45
2023/09/02 12:21:48;;;;;;;2.27;2.07;;;36.60;33.80;;;;;;5014093;28;20495;-46
2023/09/02 12:24:14;;;;;;;2.20;1.77;;;36.70;32.70;;;;;;5012286;28;20444;-45
2023/09/02 12:26:51;;;;;;;2.93;1.80;;;36.70;31.70;;;;;;5006333;28;20208;-46
2023/09/02 12:29:23;;;;;;;2.20;1.67;;;36.70;31.80;;;;;;5014294;28;20504;-45
2023/09/02 12:31:56;;;;;;;4.50;2.13;;;36.70;33.00;;;;;;5014452;28;20429;-47
2023/09/02 12:34:23;;;;;;;9.47;2.20;;;36.60;32.80;;;;;;5013692;28;20450;-45
2023/09/02 12:36:49;;;;;;;3.80;1.67;;;36.80;33.40;;;;;;5002257;28;20484;-48
2023/09/02 12:39:27;;;;;;;3.90;2.10;;;37.10;31.50;;;;;;5008126;28;21304;-45
2023/09/02 12:41:55;;;;;;;2.40;1.63;;;37.30;32.10;;;;;;5005289;28;20233;-46
2023/09/02 12:44:21;;;;;;;4.77;1.87;;;37.50;31.70;;;;;;5004824;28;20524;-49
2023/09/02 12:46:47;;;;;;;2.13;1.80;;;37.60;32.00;;;;;;5001545;28;21009;-48
2023/09/02 12:49:16;;;;;;;1.97;1.87;;;37.50;31.00;;;;;;5011405;28;20197;-45